sensor_id;sensor_type;location;lat;lon;timestamp;P1;durP1;ratioP1;P2;durP2;ratioP2
23716;SDS011;22094;52.130;5.598;2024-03-02T00:00:00;2.88;;;1.33;;
23716;SDS011;22094;52.130;5.598;2024-03-02T00:02:34;2.60;;;1.50;;
23716;SDS011;22094;52.130;5.598;2024-03-02T00:05:06;2.25;;;1.58;;
23716;SDS011;22094;52.130;5.598;2024-03-02T00:07:32;2.58;;;1.30;;
23716;SDS011;22094;52.130;5.598;2024-03-02T00:09:58;2.78;;;1.27;;
23716;SDS011;22094;52.130;5.598;2024-03-02T00:12:24;2.95;;;1.63;;
23716;SDS011;22094;52.130;5.598;2024-03-02T00:14:49;2.35;;;1.48;;
23716;SDS011;22094;52.130;5.598;2024-03-02T00:17:21;4.15;;;1.45;;
23716;SDS011;22094;52.130;5.598;2024-03-02T00:19:50;2.13;;;1.52;;
23716;SDS011;22094;52.130;5.598;2024-03-02T00:22:17;3.83;;;1.30;;
23716;SDS011;22094;52.130;5.598;2024-03-02T00:24:43;2.33;;;1.02;;
23716;SDS011;22094;52.130;5.598;2024-03-02T00:27:08;3.78;;;1.70;;
23716;SDS011;22094;52.130;5.598;2024-03-02T00:29:39;2.33;;;1.30;;
23716;SDS011;22094;52.130;5.598;2024-03-02T00:32:12;3.35;;;1.60;;
23716;SDS011;22094;52.130;5.598;2024-03-02T00:34:40;1.70;;;1.60;;
23716;SDS011;22094;52.130;5.598;2024-03-02T00:37:05;3.15;;;1.60;;
23716;SDS011;22094;52.130;5.598;2024-03-02T00:39:31;2.65;;;1.58;;
23716;SDS011;22094;52.130;5.598;2024-03-02T00:41:57;2.22;;;1.33;;
23716;SDS011;22094;52.130;5.598;2024-03-02T00:44:23;4.35;;;1.50;;
23716;SDS011;22094;52.130;5.598;2024-03-02T00:46:51;4.65;;;1.50;;
23716;SDS011;22094;52.130;5.598;2024-03-02T00:49:20;1.70;;;1.33;;
23716;SDS011;22094;52.130;5.598;2024-03-02T00:51:48;2.47;;;1.42;;
23716;SDS011;22094;52.130;5.598;2024-03-02T00:54:15;3.65;;;1.40;;
23716;SDS011;22094;52.130;5.598;2024-03-02T00:56:43;1.73;;;1.23;;
23716;SDS011;22094;52.130;5.598;2024-03-02T00:59:10;4.57;;;1.65;;
23716;SDS011;22094;52.130;5.598;2024-03-02T01:01:36;2.35;;;1.30;;
23716;SDS011;22094;52.130;5.598;2024-03-02T01:04:02;2.08;;;1.45;;
23716;SDS011;22094;52.130;5.598;2024-03-02T01:06:27;1.83;;;1.30;;
23716;SDS011;22094;52.130;5.598;2024-03-02T01:08:53;1.88;;;1.40;;
23716;SDS011;22094;52.130;5.598;2024-03-02T01:11:18;3.10;;;1.40;;
23716;SDS011;22094;52.130;5.598;2024-03-02T01:13:45;2.65;;;1.38;;
23716;SDS011;22094;52.130;5.598;2024-03-02T01:16:11;1.00;;;0.90;;
23716;SDS011;22094;52.130;5.598;2024-03-02T01:18:36;3.15;;;0.90;;
23716;SDS011;22094;52.130;5.598;2024-03-02T01:21:02;1.25;;;1.05;;
23716;SDS011;22094;52.130;5.598;2024-03-02T01:23:28;0.80;;;0.80;;
23716;SDS011;22094;52.130;5.598;2024-03-02T01:25:53;1.52;;;0.77;;
23716;SDS011;22094;52.130;5.598;2024-03-02T01:28:19;0.85;;;0.60;;
23716;SDS011;22094;52.130;5.598;2024-03-02T01:30:45;3.17;;;0.80;;
23716;SDS011;22094;52.130;5.598;2024-03-02T01:33:12;0.93;;;0.60;;
23716;SDS011;22094;52.130;5.598;2024-03-02T01:35:37;0.73;;;0.60;;
23716;SDS011;22094;52.130;5.598;2024-03-02T01:38:03;0.82;;;0.60;;
23716;SDS011;22094;52.130;5.598;2024-03-02T01:40:31;1.17;;;0.70;;
23716;SDS011;22094;52.130;5.598;2024-03-02T01:42:57;1.23;;;0.60;;
23716;SDS011;22094;52.130;5.598;2024-03-02T01:45:25;0.52;;;0.50;;
23716;SDS011;22094;52.130;5.598;2024-03-02T01:47:51;0.55;;;0.55;;
23716;SDS011;22094;52.130;5.598;2024-03-02T01:50:24;1.23;;;0.70;;
23716;SDS011;22094;52.130;5.598;2024-03-02T01:52:51;0.70;;;0.70;;
23716;SDS011;22094;52.130;5.598;2024-03-02T01:55:17;0.75;;;0.70;;
23716;SDS011;22094;52.130;5.598;2024-03-02T01:57:42;0.55;;;0.55;;
23716;SDS011;22094;52.130;5.598;2024-03-02T02:00:10;0.93;;;0.47;;
23716;SDS011;22094;52.130;5.598;2024-03-02T02:02:36;1.20;;;0.50;;
23716;SDS011;22094;52.130;5.598;2024-03-02T02:05:01;0.50;;;0.50;;
23716;SDS011;22094;52.130;5.598;2024-03-02T02:07:27;0.98;;;0.65;;
23716;SDS011;22094;52.130;5.598;2024-03-02T02:09:53;0.55;;;0.55;;
23716;SDS011;22094;52.130;5.598;2024-03-02T02:12:18;0.52;;;0.52;;
23716;SDS011;22094;52.130;5.598;2024-03-02T02:14:47;2.35;;;0.80;;
23716;SDS011;22094;52.130;5.598;2024-03-02T02:17:15;0.88;;;0.57;;
23716;SDS011;22094;52.130;5.598;2024-03-02T02:19:41;1.80;;;0.75;;
23716;SDS011;22094;52.130;5.598;2024-03-02T02:22:07;0.75;;;0.75;;
23716;SDS011;22094;52.130;5.598;2024-03-02T02:24:33;0.60;;;0.60;;
23716;SDS011;22094;52.130;5.598;2024-03-02T02:26:58;0.57;;;0.52;;
23716;SDS011;22094;52.130;5.598;2024-03-02T02:29:24;0.50;;;0.50;;
23716;SDS011;22094;52.130;5.598;2024-03-02T02:31:50;1.05;;;0.70;;
23716;SDS011;22094;52.130;5.598;2024-03-02T02:34:16;0.63;;;0.63;;
23716;SDS011;22094;52.130;5.598;2024-03-02T02:36:44;1.23;;;0.52;;
23716;SDS011;22094;52.130;5.598;2024-03-02T02:39:22;0.75;;;0.60;;
23716;SDS011;22094;52.130;5.598;2024-03-02T02:41:48;1.17;;;0.80;;
23716;SDS011;22094;52.130;5.598;2024-03-02T02:44:17;0.75;;;0.75;;
23716;SDS011;22094;52.130;5.598;2024-03-02T02:46:49;0.90;;;0.60;;
23716;SDS011;22094;52.130;5.598;2024-03-02T02:49:14;1.63;;;0.63;;
23716;SDS011;22094;52.130;5.598;2024-03-02T02:51:40;1.58;;;0.80;;
23716;SDS011;22094;52.130;5.598;2024-03-02T02:54:05;0.60;;;0.60;;
23716;SDS011;22094;52.130;5.598;2024-03-02T02:56:31;0.82;;;0.70;;
23716;SDS011;22094;52.130;5.598;2024-03-02T02:58:56;0.82;;;0.60;;
23716;SDS011;22094;52.130;5.598;2024-03-02T03:01:22;0.73;;;0.73;;
23716;SDS011;22094;52.130;5.598;2024-03-02T03:03:48;1.10;;;0.70;;
23716;SDS011;22094;52.130;5.598;2024-03-02T03:06:13;1.17;;;0.80;;
23716;SDS011;22094;52.130;5.598;2024-03-02T03:08:39;1.48;;;0.63;;
23716;SDS011;22094;52.130;5.598;2024-03-02T03:11:04;0.55;;;0.55;;
23716;SDS011;22094;52.130;5.598;2024-03-02T03:13:34;2.33;;;0.70;;
23716;SDS011;22094;52.130;5.598;2024-03-02T03:15:59;0.70;;;0.70;;
23716;SDS011;22094;52.130;5.598;2024-03-02T03:18:25;0.80;;;0.80;;
23716;SDS011;22094;52.130;5.598;2024-03-02T03:20:51;0.88;;;0.88;;
23716;SDS011;22094;52.130;5.598;2024-03-02T03:23:16;0.73;;;0.60;;
23716;SDS011;22094;52.130;5.598;2024-03-02T03:25:42;0.75;;;0.60;;
23716;SDS011;22094;52.130;5.598;2024-03-02T03:28:08;1.38;;;0.70;;
23716;SDS011;22094;52.130;5.598;2024-03-02T03:30:37;0.70;;;0.70;;
23716;SDS011;22094;52.130;5.598;2024-03-02T03:33:03;0.70;;;0.70;;
23716;SDS011;22094;52.130;5.598;2024-03-02T03:35:32;0.70;;;0.70;;
23716;SDS011;22094;52.130;5.598;2024-03-02T03:37:58;2.17;;;0.90;;
23716;SDS011;22094;52.130;5.598;2024-03-02T03:40:24;1.33;;;0.75;;
23716;SDS011;22094;52.130;5.598;2024-03-02T03:42:50;1.25;;;0.88;;
23716;SDS011;22094;52.130;5.598;2024-03-02T03:45:15;1.25;;;1.00;;
23716;SDS011;22094;52.130;5.598;2024-03-02T03:47:41;1.20;;;1.10;;
23716;SDS011;22094;52.130;5.598;2024-03-02T03:50:07;0.93;;;0.80;;
23716;SDS011;22094;52.130;5.598;2024-03-02T03:52:33;1.58;;;1.13;;
23716;SDS011;22094;52.130;5.598;2024-03-02T03:54:59;0.80;;;0.80;;
23716;SDS011;22094;52.130;5.598;2024-03-02T03:57:25;0.95;;;0.85;;
23716;SDS011;22094;52.130;5.598;2024-03-02T03:59:51;0.98;;;0.80;;
23716;SDS011;22094;52.130;5.598;2024-03-02T04:02:17;1.10;;;1.00;;
23716;SDS011;22094;52.130;5.598;2024-03-02T04:04:42;0.93;;;0.80;;
23716;SDS011;22094;52.130;5.598;2024-03-02T04:07:08;2.53;;;0.90;;
23716;SDS011;22094;52.130;5.598;2024-03-02T04:09:34;1.08;;;0.73;;
23716;SDS011;22094;52.130;5.598;2024-03-02T04:11:59;0.70;;;0.70;;
23716;SDS011;22094;52.130;5.598;2024-03-02T04:14:25;0.80;;;0.80;;
23716;SDS011;22094;52.130;5.598;2024-03-02T04:16:50;1.52;;;0.80;;
23716;SDS011;22094;52.130;5.598;2024-03-02T04:19:16;0.90;;;0.90;;
23716;SDS011;22094;52.130;5.598;2024-03-02T04:21:42;0.73;;;0.73;;
23716;SDS011;22094;52.130;5.598;2024-03-02T04:24:07;1.15;;;0.70;;
23716;SDS011;22094;52.130;5.598;2024-03-02T04:26:33;1.52;;;0.70;;
23716;SDS011;22094;52.130;5.598;2024-03-02T04:28:58;0.70;;;0.70;;
23716;SDS011;22094;52.130;5.598;2024-03-02T04:31:24;0.80;;;0.80;;
23716;SDS011;22094;52.130;5.598;2024-03-02T04:33:49;1.40;;;0.80;;
23716;SDS011;22094;52.130;5.598;2024-03-02T04:36:15;1.20;;;0.70;;
23716;SDS011;22094;52.130;5.598;2024-03-02T04:38:40;1.60;;;0.70;;
23716;SDS011;22094;52.130;5.598;2024-03-02T04:41:06;1.60;;;0.70;;
23716;SDS011;22094;52.130;5.598;2024-03-02T04:43:34;1.13;;;0.75;;
23716;SDS011;22094;52.130;5.598;2024-03-02T04:45:59;1.60;;;0.88;;
23716;SDS011;22094;52.130;5.598;2024-03-02T04:48:25;0.88;;;0.77;;
23716;SDS011;22094;52.130;5.598;2024-03-02T04:50:51;1.42;;;0.70;;
23716;SDS011;22094;52.130;5.598;2024-03-02T04:53:17;1.92;;;0.77;;
23716;SDS011;22094;52.130;5.598;2024-03-02T04:55:42;3.55;;;0.70;;
23716;SDS011;22094;52.130;5.598;2024-03-02T04:58:08;2.15;;;0.80;;
23716;SDS011;22094;52.130;5.598;2024-03-02T05:00:35;1.83;;;0.60;;
23716;SDS011;22094;52.130;5.598;2024-03-02T05:03:01;2.63;;;0.90;;
23716;SDS011;22094;52.130;5.598;2024-03-02T05:05:27;1.77;;;0.70;;
23716;SDS011;22094;52.130;5.598;2024-03-02T05:07:53;1.83;;;0.70;;
23716;SDS011;22094;52.130;5.598;2024-03-02T05:10:18;2.75;;;0.88;;
23716;SDS011;22094;52.130;5.598;2024-03-02T05:12:44;3.05;;;0.90;;
23716;SDS011;22094;52.130;5.598;2024-03-02T05:15:10;1.73;;;0.65;;
23716;SDS011;22094;52.130;5.598;2024-03-02T05:17:39;2.13;;;0.80;;
23716;SDS011;22094;52.130;5.598;2024-03-02T05:20:07;2.03;;;0.70;;
23716;SDS011;22094;52.130;5.598;2024-03-02T05:22:34;1.10;;;0.77;;
23716;SDS011;22094;52.130;5.598;2024-03-02T05:25:00;1.58;;;0.70;;
23716;SDS011;22094;52.130;5.598;2024-03-02T05:27:29;2.22;;;0.68;;
23716;SDS011;22094;52.130;5.598;2024-03-02T05:29:55;2.25;;;0.80;;
23716;SDS011;22094;52.130;5.598;2024-03-02T05:32:21;2.30;;;0.82;;
23716;SDS011;22094;52.130;5.598;2024-03-02T05:34:46;1.85;;;0.60;;
23716;SDS011;22094;52.130;5.598;2024-03-02T05:37:12;1.33;;;0.60;;
23716;SDS011;22094;52.130;5.598;2024-03-02T05:39:37;1.88;;;0.90;;
23716;SDS011;22094;52.130;5.598;2024-03-02T05:42:03;1.45;;;0.75;;
23716;SDS011;22094;52.130;5.598;2024-03-02T05:44:29;1.50;;;0.60;;
23716;SDS011;22094;52.130;5.598;2024-03-02T05:46:55;2.15;;;0.60;;
23716;SDS011;22094;52.130;5.598;2024-03-02T05:49:20;1.95;;;0.77;;
23716;SDS011;22094;52.130;5.598;2024-03-02T05:51:46;2.05;;;0.68;;
23716;SDS011;22094;52.130;5.598;2024-03-02T05:54:12;2.28;;;1.50;;
23716;SDS011;22094;52.130;5.598;2024-03-02T05:56:38;1.80;;;1.00;;
23716;SDS011;22094;52.130;5.598;2024-03-02T05:59:03;2.65;;;1.27;;
23716;SDS011;22094;52.130;5.598;2024-03-02T06:01:47;2.72;;;0.80;;
23716;SDS011;22094;52.130;5.598;2024-03-02T06:04:13;5.60;;;3.20;;
23716;SDS011;22094;52.130;5.598;2024-03-02T06:06:39;1.55;;;1.30;;
23716;SDS011;22094;52.130;5.598;2024-03-02T06:09:06;2.25;;;0.93;;
23716;SDS011;22094;52.130;5.598;2024-03-02T06:11:37;1.65;;;0.70;;
23716;SDS011;22094;52.130;5.598;2024-03-02T06:14:04;0.85;;;0.85;;
23716;SDS011;22094;52.130;5.598;2024-03-02T06:16:30;3.45;;;1.23;;
23716;SDS011;22094;52.130;5.598;2024-03-02T06:18:56;1.10;;;1.00;;
23716;SDS011;22094;52.130;5.598;2024-03-02T06:21:23;1.88;;;1.02;;
23716;SDS011;22094;52.130;5.598;2024-03-02T06:23:49;3.78;;;1.48;;
23716;SDS011;22094;52.130;5.598;2024-03-02T06:26:14;2.95;;;1.35;;
23716;SDS011;22094;52.130;5.598;2024-03-02T06:28:40;1.08;;;0.90;;
23716;SDS011;22094;52.130;5.598;2024-03-02T06:31:06;2.30;;;1.38;;
23716;SDS011;22094;52.130;5.598;2024-03-02T06:33:31;2.53;;;1.10;;
23716;SDS011;22094;52.130;5.598;2024-03-02T06:35:57;1.20;;;1.10;;
23716;SDS011;22094;52.130;5.598;2024-03-02T06:38:22;2.80;;;1.10;;
23716;SDS011;22094;52.130;5.598;2024-03-02T06:40:48;2.50;;;1.30;;
23716;SDS011;22094;52.130;5.598;2024-03-02T06:43:14;3.22;;;1.20;;
23716;SDS011;22094;52.130;5.598;2024-03-02T06:45:39;1.15;;;1.05;;
23716;SDS011;22094;52.130;5.598;2024-03-02T06:48:05;2.42;;;1.60;;
23716;SDS011;22094;52.130;5.598;2024-03-02T06:50:31;7.53;;;4.18;;
23716;SDS011;22094;52.130;5.598;2024-03-02T06:52:56;5.13;;;2.60;;
23716;SDS011;22094;52.130;5.598;2024-03-02T06:55:22;8.20;;;3.65;;
23716;SDS011;22094;52.130;5.598;2024-03-02T06:57:49;7.28;;;3.30;;
23716;SDS011;22094;52.130;5.598;2024-03-02T07:00:15;8.45;;;3.42;;
23716;SDS011;22094;52.130;5.598;2024-03-02T07:02:42;13.02;;;4.57;;
23716;SDS011;22094;52.130;5.598;2024-03-02T07:05:09;6.03;;;2.78;;
23716;SDS011;22094;52.130;5.598;2024-03-02T07:07:35;8.40;;;3.20;;
23716;SDS011;22094;52.130;5.598;2024-03-02T07:10:01;13.85;;;4.25;;
23716;SDS011;22094;52.130;5.598;2024-03-02T07:12:28;17.02;;;5.30;;
23716;SDS011;22094;52.130;5.598;2024-03-02T07:14:53;19.48;;;5.45;;
23716;SDS011;22094;52.130;5.598;2024-03-02T07:17:42;22.10;;;6.65;;
23716;SDS011;22094;52.130;5.598;2024-03-02T07:20:07;12.43;;;4.20;;
23716;SDS011;22094;52.130;5.598;2024-03-02T07:22:33;36.00;;;10.07;;
23716;SDS011;22094;52.130;5.598;2024-03-02T07:24:59;6.38;;;3.40;;
23716;SDS011;22094;52.130;5.598;2024-03-02T07:27:25;4.90;;;3.35;;
23716;SDS011;22094;52.130;5.598;2024-03-02T07:29:50;2.88;;;1.83;;
23716;SDS011;22094;52.130;5.598;2024-03-02T07:32:16;2.78;;;1.67;;
23716;SDS011;22094;52.130;5.598;2024-03-02T07:34:41;2.63;;;1.83;;
23716;SDS011;22094;52.130;5.598;2024-03-02T07:37:07;1.80;;;1.58;;
23716;SDS011;22094;52.130;5.598;2024-03-02T07:39:32;1.90;;;1.67;;
23716;SDS011;22094;52.130;5.598;2024-03-02T07:41:59;4.28;;;1.70;;
23716;SDS011;22094;52.130;5.598;2024-03-02T07:44:25;2.45;;;1.40;;
23716;SDS011;22094;52.130;5.598;2024-03-02T07:46:50;3.65;;;1.80;;
23716;SDS011;22094;52.130;5.598;2024-03-02T07:49:16;3.05;;;1.40;;
23716;SDS011;22094;52.130;5.598;2024-03-02T07:51:42;2.22;;;1.40;;
23716;SDS011;22094;52.130;5.598;2024-03-02T07:54:08;2.67;;;1.35;;
23716;SDS011;22094;52.130;5.598;2024-03-02T07:56:34;4.25;;;1.67;;
23716;SDS011;22094;52.130;5.598;2024-03-02T07:59:01;1.63;;;1.23;;
23716;SDS011;22094;52.130;5.598;2024-03-02T08:01:27;2.15;;;1.15;;
23716;SDS011;22094;52.130;5.598;2024-03-02T08:03:55;5.25;;;1.40;;
23716;SDS011;22094;52.130;5.598;2024-03-02T08:06:24;1.65;;;1.20;;
23716;SDS011;22094;52.130;5.598;2024-03-02T08:08:53;1.92;;;1.30;;
23716;SDS011;22094;52.130;5.598;2024-03-02T08:11:22;2.45;;;1.42;;
23716;SDS011;22094;52.130;5.598;2024-03-02T08:13:48;3.30;;;1.27;;
23716;SDS011;22094;52.130;5.598;2024-03-02T08:16:16;1.80;;;1.20;;
23716;SDS011;22094;52.130;5.598;2024-03-02T08:18:44;2.67;;;1.05;;
23716;SDS011;22094;52.130;5.598;2024-03-02T08:21:11;3.20;;;1.20;;
23716;SDS011;22094;52.130;5.598;2024-03-02T08:23:37;2.47;;;1.15;;
23716;SDS011;22094;52.130;5.598;2024-03-02T08:26:03;2.35;;;1.30;;
23716;SDS011;22094;52.130;5.598;2024-03-02T08:28:29;2.90;;;1.50;;
23716;SDS011;22094;52.130;5.598;2024-03-02T08:30:54;2.33;;;1.13;;
23716;SDS011;22094;52.130;5.598;2024-03-02T08:33:21;2.17;;;1.13;;
23716;SDS011;22094;52.130;5.598;2024-03-02T08:35:47;2.72;;;1.00;;
23716;SDS011;22094;52.130;5.598;2024-03-02T08:38:12;3.75;;;1.00;;
23716;SDS011;22094;52.130;5.598;2024-03-02T08:40:38;2.03;;;0.85;;
23716;SDS011;22094;52.130;5.598;2024-03-02T08:43:04;2.63;;;1.20;;
23716;SDS011;22094;52.130;5.598;2024-03-02T08:45:30;3.40;;;1.33;;
23716;SDS011;22094;52.130;5.598;2024-03-02T08:47:55;2.45;;;1.27;;
23716;SDS011;22094;52.130;5.598;2024-03-02T08:50:21;2.83;;;1.17;;
23716;SDS011;22094;52.130;5.598;2024-03-02T08:52:55;2.65;;;1.05;;
23716;SDS011;22094;52.130;5.598;2024-03-02T08:55:20;4.55;;;1.38;;
23716;SDS011;22094;52.130;5.598;2024-03-02T08:57:46;4.05;;;1.40;;
23716;SDS011;22094;52.130;5.598;2024-03-02T09:00:12;2.15;;;0.90;;
23716;SDS011;22094;52.130;5.598;2024-03-02T09:02:37;4.35;;;1.20;;
23716;SDS011;22094;52.130;5.598;2024-03-02T09:05:03;2.42;;;1.30;;
23716;SDS011;22094;52.130;5.598;2024-03-02T09:07:30;2.17;;;1.40;;
23716;SDS011;22094;52.130;5.598;2024-03-02T09:09:55;3.08;;;1.35;;
23716;SDS011;22094;52.130;5.598;2024-03-02T09:12:21;5.68;;;1.50;;
23716;SDS011;22094;52.130;5.598;2024-03-02T09:14:46;1.77;;;1.20;;
23716;SDS011;22094;52.130;5.598;2024-03-02T09:17:12;3.75;;;1.65;;
23716;SDS011;22094;52.130;5.598;2024-03-02T09:19:38;2.35;;;1.30;;
23716;SDS011;22094;52.130;5.598;2024-03-02T09:22:04;4.15;;;1.30;;
23716;SDS011;22094;52.130;5.598;2024-03-02T09:24:30;3.72;;;1.13;;
23716;SDS011;22094;52.130;5.598;2024-03-02T09:26:56;3.75;;;1.35;;
23716;SDS011;22094;52.130;5.598;2024-03-02T09:29:22;2.58;;;1.20;;
23716;SDS011;22094;52.130;5.598;2024-03-02T09:31:48;3.63;;;1.48;;
23716;SDS011;22094;52.130;5.598;2024-03-02T09:34:15;2.58;;;1.00;;
23716;SDS011;22094;52.130;5.598;2024-03-02T09:36:41;3.45;;;1.25;;
23716;SDS011;22094;52.130;5.598;2024-03-02T09:39:07;2.78;;;1.10;;
23716;SDS011;22094;52.130;5.598;2024-03-02T09:41:34;5.63;;;1.30;;
23716;SDS011;22094;52.130;5.598;2024-03-02T09:44:01;3.60;;;1.23;;
23716;SDS011;22094;52.130;5.598;2024-03-02T09:46:27;2.33;;;1.40;;
23716;SDS011;22094;52.130;5.598;2024-03-02T09:48:53;3.05;;;1.63;;
23716;SDS011;22094;52.130;5.598;2024-03-02T09:51:19;1.92;;;0.98;;
23716;SDS011;22094;52.130;5.598;2024-03-02T09:53:45;2.30;;;1.00;;
23716;SDS011;22094;52.130;5.598;2024-03-02T09:56:11;3.53;;;1.48;;
23716;SDS011;22094;52.130;5.598;2024-03-02T09:58:36;4.10;;;1.23;;
23716;SDS011;22094;52.130;5.598;2024-03-02T10:01:05;3.25;;;1.52;;
23716;SDS011;22094;52.130;5.598;2024-03-02T10:03:31;5.88;;;1.33;;
23716;SDS011;22094;52.130;5.598;2024-03-02T10:06:18;3.60;;;1.17;;
23716;SDS011;22094;52.130;5.598;2024-03-02T10:08:44;7.13;;;1.33;;
23716;SDS011;22094;52.130;5.598;2024-03-02T10:11:09;5.10;;;1.15;;
23716;SDS011;22094;52.130;5.598;2024-03-02T10:13:35;5.28;;;2.80;;
23716;SDS011;22094;52.130;5.598;2024-03-02T10:16:11;2.38;;;1.23;;
23716;SDS011;22094;52.130;5.598;2024-03-02T10:18:37;2.25;;;0.93;;
23716;SDS011;22094;52.130;5.598;2024-03-02T10:21:15;5.28;;;1.20;;
23716;SDS011;22094;52.130;5.598;2024-03-02T10:23:40;3.40;;;1.00;;
23716;SDS011;22094;52.130;5.598;2024-03-02T10:26:18;3.38;;;1.20;;
23716;SDS011;22094;52.130;5.598;2024-03-02T10:28:47;3.63;;;1.00;;
23716;SDS011;22094;52.130;5.598;2024-03-02T10:31:13;1.48;;;0.73;;
23716;SDS011;22094;52.130;5.598;2024-03-02T10:33:39;3.78;;;1.38;;
23716;SDS011;22094;52.130;5.598;2024-03-02T10:36:05;5.35;;;1.02;;
23716;SDS011;22094;52.130;5.598;2024-03-02T10:38:30;2.70;;;1.27;;
23716;SDS011;22094;52.130;5.598;2024-03-02T10:40:57;4.53;;;1.20;;
23716;SDS011;22094;52.130;5.598;2024-03-02T10:43:24;3.00;;;1.35;;
23716;SDS011;22094;52.130;5.598;2024-03-02T10:45:51;5.50;;;1.85;;
23716;SDS011;22094;52.130;5.598;2024-03-02T10:48:17;5.65;;;1.80;;
23716;SDS011;22094;52.130;5.598;2024-03-02T10:50:43;7.18;;;1.90;;
23716;SDS011;22094;52.130;5.598;2024-03-02T10:53:09;5.47;;;1.35;;
23716;SDS011;22094;52.130;5.598;2024-03-02T10:55:35;3.92;;;1.00;;
23716;SDS011;22094;52.130;5.598;2024-03-02T10:58:01;3.13;;;1.20;;
23716;SDS011;22094;52.130;5.598;2024-03-02T11:00:33;3.72;;;1.00;;
23716;SDS011;22094;52.130;5.598;2024-03-02T11:03:04;7.05;;;1.40;;
23716;SDS011;22094;52.130;5.598;2024-03-02T11:05:38;1.83;;;0.95;;
23716;SDS011;22094;52.130;5.598;2024-03-02T11:08:13;2.22;;;1.00;;
23716;SDS011;22094;52.130;5.598;2024-03-02T11:10:44;5.40;;;1.85;;
23716;SDS011;22094;52.130;5.598;2024-03-02T11:13:12;4.10;;;0.80;;
23716;SDS011;22094;52.130;5.598;2024-03-02T11:15:39;4.60;;;1.30;;
23716;SDS011;22094;52.130;5.598;2024-03-02T11:18:07;4.47;;;1.05;;
23716;SDS011;22094;52.130;5.598;2024-03-02T11:20:35;2.88;;;1.23;;
23716;SDS011;22094;52.130;5.598;2024-03-02T11:23:08;2.38;;;1.10;;
23716;SDS011;22094;52.130;5.598;2024-03-02T11:25:34;5.13;;;1.27;;
23716;SDS011;22094;52.130;5.598;2024-03-02T11:28:01;2.78;;;0.90;;
23716;SDS011;22094;52.130;5.598;2024-03-02T11:32:57;4.32;;;0.80;;
23716;SDS011;22094;52.130;5.598;2024-03-02T11:35:26;3.60;;;0.85;;
23716;SDS011;22094;52.130;5.598;2024-03-02T11:37:55;3.00;;;0.68;;
23716;SDS011;22094;52.130;5.598;2024-03-02T11:40:26;7.45;;;1.05;;
23716;SDS011;22094;52.130;5.598;2024-03-02T11:42:53;2.90;;;0.93;;
23716;SDS011;22094;52.130;5.598;2024-03-02T11:45:22;13.35;;;5.55;;
23716;SDS011;22094;52.130;5.598;2024-03-02T11:47:53;13.52;;;6.93;;
23716;SDS011;22094;52.130;5.598;2024-03-02T11:50:29;3.35;;;1.90;;
23716;SDS011;22094;52.130;5.598;2024-03-02T11:52:56;5.55;;;1.40;;
23716;SDS011;22094;52.130;5.598;2024-03-02T11:55:23;2.25;;;1.17;;
23716;SDS011;22094;52.130;5.598;2024-03-02T11:57:51;5.00;;;1.10;;
23716;SDS011;22094;52.130;5.598;2024-03-02T12:00:18;3.38;;;1.10;;
23716;SDS011;22094;52.130;5.598;2024-03-02T12:02:48;3.20;;;0.80;;
23716;SDS011;22094;52.130;5.598;2024-03-02T12:05:29;2.47;;;1.08;;
23716;SDS011;22094;52.130;5.598;2024-03-02T12:07:56;2.55;;;1.35;;
23716;SDS011;22094;52.130;5.598;2024-03-02T12:10:22;1.58;;;0.98;;
23716;SDS011;22094;52.130;5.598;2024-03-02T12:12:54;2.63;;;1.77;;
23716;SDS011;22094;52.130;5.598;2024-03-02T12:15:22;2.25;;;1.50;;
23716;SDS011;22094;52.130;5.598;2024-03-02T12:17:52;1.83;;;0.95;;
23716;SDS011;22094;52.130;5.598;2024-03-02T12:20:19;1.90;;;0.93;;
23716;SDS011;22094;52.130;5.598;2024-03-02T12:22:45;2.65;;;0.98;;
23716;SDS011;22094;52.130;5.598;2024-03-02T12:25:11;1.90;;;0.90;;
23716;SDS011;22094;52.130;5.598;2024-03-02T12:27:37;2.03;;;1.15;;
23716;SDS011;22094;52.130;5.598;2024-03-02T12:30:04;4.30;;;1.00;;
23716;SDS011;22094;52.130;5.598;2024-03-02T12:32:33;3.20;;;0.95;;
23716;SDS011;22094;52.130;5.598;2024-03-02T12:34:59;2.42;;;0.90;;
23716;SDS011;22094;52.130;5.598;2024-03-02T12:37:25;2.72;;;0.90;;
23716;SDS011;22094;52.130;5.598;2024-03-02T12:39:52;2.40;;;0.93;;
23716;SDS011;22094;52.130;5.598;2024-03-02T12:42:18;3.58;;;1.05;;
23716;SDS011;22094;52.130;5.598;2024-03-02T12:44:43;3.80;;;1.10;;
23716;SDS011;22094;52.130;5.598;2024-03-02T12:47:09;2.97;;;1.02;;
23716;SDS011;22094;52.130;5.598;2024-03-02T12:49:37;4.45;;;1.15;;
23716;SDS011;22094;52.130;5.598;2024-03-02T12:52:05;4.47;;;1.20;;
23716;SDS011;22094;52.130;5.598;2024-03-02T12:54:31;2.72;;;1.05;;
23716;SDS011;22094;52.130;5.598;2024-03-02T12:56:58;3.33;;;1.20;;
23716;SDS011;22094;52.130;5.598;2024-03-02T12:59:24;2.67;;;0.90;;
23716;SDS011;22094;52.130;5.598;2024-03-02T13:01:54;2.53;;;1.08;;
23716;SDS011;22094;52.130;5.598;2024-03-02T13:04:28;3.25;;;1.10;;
23716;SDS011;22094;52.130;5.598;2024-03-02T13:06:55;4.47;;;1.58;;
23716;SDS011;22094;52.130;5.598;2024-03-02T13:09:23;5.03;;;1.80;;
23716;SDS011;22094;52.130;5.598;2024-03-02T13:11:49;3.17;;;1.25;;
23716;SDS011;22094;52.130;5.598;2024-03-02T13:14:15;3.92;;;0.80;;
23716;SDS011;22094;52.130;5.598;2024-03-02T13:16:41;4.57;;;1.10;;
23716;SDS011;22094;52.130;5.598;2024-03-02T13:19:08;1.85;;;0.90;;
23716;SDS011;22094;52.130;5.598;2024-03-02T13:21:34;2.80;;;1.00;;
23716;SDS011;22094;52.130;5.598;2024-03-02T13:23:59;2.42;;;1.05;;
23716;SDS011;22094;52.130;5.598;2024-03-02T13:26:26;5.13;;;1.30;;
23716;SDS011;22094;52.130;5.598;2024-03-02T13:28:51;4.13;;;0.85;;
23716;SDS011;22094;52.130;5.598;2024-03-02T13:31:17;4.30;;;1.00;;
23716;SDS011;22094;52.130;5.598;2024-03-02T13:33:42;2.15;;;1.00;;
23716;SDS011;22094;52.130;5.598;2024-03-02T13:36:08;3.45;;;1.98;;
23716;SDS011;22094;52.130;5.598;2024-03-02T13:38:34;5.45;;;1.85;;
23716;SDS011;22094;52.130;5.598;2024-03-02T13:41:01;3.00;;;1.25;;
23716;SDS011;22094;52.130;5.598;2024-03-02T13:43:29;3.13;;;1.00;;
23716;SDS011;22094;52.130;5.598;2024-03-02T13:45:57;4.35;;;2.03;;
23716;SDS011;22094;52.130;5.598;2024-03-02T13:48:23;7.45;;;3.90;;
23716;SDS011;22094;52.130;5.598;2024-03-02T13:50:51;2.58;;;1.23;;
23716;SDS011;22094;52.130;5.598;2024-03-02T13:53:18;3.78;;;1.40;;
23716;SDS011;22094;52.130;5.598;2024-03-02T13:55:43;2.60;;;1.33;;
23716;SDS011;22094;52.130;5.598;2024-03-02T13:58:09;3.33;;;1.30;;
23716;SDS011;22094;52.130;5.598;2024-03-02T14:00:35;4.20;;;1.20;;
23716;SDS011;22094;52.130;5.598;2024-03-02T14:03:03;2.72;;;1.05;;
23716;SDS011;22094;52.130;5.598;2024-03-02T14:05:32;3.35;;;1.17;;
23716;SDS011;22094;52.130;5.598;2024-03-02T14:07:57;2.13;;;1.00;;
23716;SDS011;22094;52.130;5.598;2024-03-02T14:10:25;3.45;;;1.30;;
23716;SDS011;22094;52.130;5.598;2024-03-02T14:12:52;2.97;;;1.00;;
23716;SDS011;22094;52.130;5.598;2024-03-02T14:15:17;2.47;;;1.10;;
23716;SDS011;22094;52.130;5.598;2024-03-02T14:17:43;2.40;;;1.00;;
23716;SDS011;22094;52.130;5.598;2024-03-02T14:20:09;3.45;;;1.58;;
23716;SDS011;22094;52.130;5.598;2024-03-02T14:22:37;3.65;;;1.20;;
23716;SDS011;22094;52.130;5.598;2024-03-02T14:25:03;2.80;;;1.30;;
23716;SDS011;22094;52.130;5.598;2024-03-02T14:27:29;3.60;;;1.17;;
23716;SDS011;22094;52.130;5.598;2024-03-02T14:29:55;3.13;;;1.33;;
23716;SDS011;22094;52.130;5.598;2024-03-02T14:32:20;1.83;;;1.08;;
23716;SDS011;22094;52.130;5.598;2024-03-02T14:34:47;2.13;;;1.13;;
23716;SDS011;22094;52.130;5.598;2024-03-02T14:37:13;2.45;;;1.33;;
23716;SDS011;22094;52.130;5.598;2024-03-02T14:39:42;3.10;;;1.45;;
23716;SDS011;22094;52.130;5.598;2024-03-02T14:42:07;4.20;;;1.25;;
23716;SDS011;22094;52.130;5.598;2024-03-02T14:44:33;4.65;;;1.48;;
23716;SDS011;22094;52.130;5.598;2024-03-02T14:47:00;2.58;;;1.00;;